• Join FlightAware (Why Join?)
  • Login
  • US Flag 
03:01AM EST


 

Airport Tracker/Info


-or-


 

Live Flight TrackerFlight Track Log ✈ VTS961 ✈ 03-May-2013 ✈ PABE / BET - PANC

Flight Track Log - Related Links

Times and Time Zones

All times are in EDT time to prevent confusion due to time zone crossing. See the VTS961 flight status page for this flight to view local times or setup timezone preferences in your user account.

Time Position Orientation Groundspeed Altitude Reporting Facility
EDT Latitude Longitude Course Direction KTS MPH feet Rate Location/Type
06:14PM 60.7833 -161.6167 79° East 210 242 7,200  Level Anchorage Center
06:15PM 60.8000 -161.4833 76° East 250 288 10,800 3,300 Climbing Anchorage Center
06:16PM 60.8167 -161.2833 80° East 320 368 13,800 3,050 Climbing Anchorage Center
06:17PM 60.8606 -160.5337 79° East  Level FlightAware Approximate
06:17PM 60.8333 -161.1000 79° East 350 403 16,900  Level Anchorage Center
06:18PM 60.8753 -160.3134 83° East  Level FlightAware Approximate
06:18PM 60.8500 -160.8667 82° East 390 449 19,500  Level Anchorage Center
06:19PM 60.8901 -160.0931 79° East  Level FlightAware Approximate
06:19PM 60.8667 -160.6500 81° East 390 449 22,300  Level Anchorage Center
06:20PM 60.9000 -160.4333 72° East 420 483 24,200 1,884 Climbing Anchorage Center
06:21PM 60.9167 -160.1833 82° East 430 495 26,100 1,950 Climbing Anchorage Center
06:22PM 60.9333 -159.9333 82° East 440 506 28,100 1,950 Climbing Anchorage Center
06:23PM 60.9667 -159.6833 75° East 440 506 30,000 1,450 Climbing Anchorage Center
06:24PM 60.9833 -159.4500 82° East 430 495 31,000 500 Climbing Anchorage Center
06:25PM 61.0167 -159.2000 75° East 440 506 31,000  Level Anchorage Center
06:26PM 61.0167 -158.9333 90° East 440 506 31,000  Level Anchorage Center
06:27PM 61.0333 -158.6833 82° East 450 518 31,000  Level Anchorage Center
06:28PM 61.0500 -158.4167 83° East 460 529 31,000  Level Anchorage Center
06:29PM 61.0500 -158.1500 90° East 460 529 31,000  Level Anchorage Center
06:30PM 61.0667 -157.9000 82° East 450 518 31,000  Level Anchorage Center
06:31PM 61.0667 -157.6333 90° East 460 529 31,000  Level Anchorage Center
06:32PM 61.0667 -157.3667 90° East 450 518 31,000  Level Anchorage Center
06:33PM 61.0667 -157.1000 90° East 450 518 31,000  Level Anchorage Center
06:34PM 61.0667 -156.8500 90° East 460 529 31,000  Level Anchorage Center
06:36PM 61.0833 -156.3167 86° East 460 529 31,000  Level Anchorage Center
06:37PM 61.0833 -156.0500 90° East 460 529 31,000  Level Anchorage Center
06:38PM 61.0833 -155.7833 90° East 450 518 31,000  Level Anchorage Center
06:39PM 61.1000 -155.4833 83° East 460 529 31,000  Level Anchorage Center
06:40PM 61.1000 -155.2333 90° East 460 529 31,000  Level Anchorage Center
06:41PM 61.1167 -154.9667 83° East 450 518 31,000  Level Anchorage Center
06:42PM 61.1167 -154.7000 90° East 460 529 31,000  Level Anchorage Center
06:43PM 61.1333 -154.4333 83° East 460 529 31,000  Level Anchorage Center
06:44PM 61.1333 -154.1667 90° East 460 529 31,000  Level Anchorage Center
06:45PM 61.1333 -153.9167 90° East 450 518 31,000  Level Anchorage Center
06:46PM 61.1167 -153.6500 97° East 450 518 31,000  Level Anchorage Center
06:47PM 61.1167 -153.3833 90° East 460 529 31,000  Level Anchorage Center
06:48PM 61.1167 -153.1333 90° East 440 506 31,000 -99 Level Anchorage Center
06:49PM 61.1000 -152.8667 97° East 460 529 30,800 -1,400 Descending Anchorage Center
06:50PM 61.1000 -152.6000 90° East 470 541 28,200 -3,100 Descending Anchorage Center
06:51PM 61.0833 -152.3167 97° East 470 541 24,600 -4,000 Descending Anchorage Center
06:52PM 61.0833 -152.0500 90° East 470 541 20,200 -3,950 Descending Anchorage Center
06:53PM 61.0833 -151.7833 90° East 440 506 16,700 -3,500 Descending Anchorage Center
06:55PM 60.9762 -151.5763 137° Southeast  Level FlightAware Approximate
07:02PM 61.0990 -150.2215 67° East  Level FlightAware Approximate
07:03PM 61.1436 -150.0308 59° Northeast  Level FlightAware Approximate
07:04PM 61.1667 -149.9833 270° West  Level FlightAware Approximate
07:05PM 61.1741 -149.9982 270° West  Level Estimated
07:06PM 61.1741 -149.9982 270° West  Level Estimated
07:07PM 61.1741 -149.9982 270° West  Level Estimated
07:08PM 61.1741 -149.9982 270° West  Level Estimated
07:09PM 61.1741 -149.9982 270° West  Level Estimated
07:10PM 61.1741 -149.9982 270° West  Level Estimated
07:11PM 61.1741 -149.9982 270° West  Level Estimated
07:12PM 61.1741 -149.9982 270° West  Level Estimated
07:13PM 61.1741 -149.9982 270° West  Level Estimated
07:14PM 61.1741 -149.9982 270° West  Level Estimated
07:15PM 61.1741 -149.9982 270° West  Level Estimated
07:16PM 61.1741 -149.9982 270° West  Level Estimated
07:17PM 61.1741 -149.9982 270° West  Level Estimated
07:18PM 61.1741 -149.9982 270° West  Level Estimated
07:19PM 61.1741 -149.9982 270° West  Level Estimated
07:20PM 61.1741 -149.9982 270° West  Level Estimated